createdAt,value
2018-07-13T00:02:21.511Z,21.07
2018-07-13T00:04:50.329Z,21.10
2018-07-13T00:07:19.074Z,21.07
2018-07-13T00:09:47.913Z,21.05
2018-07-13T00:12:16.781Z,21.03
2018-07-13T00:14:56.485Z,21.02
2018-07-13T00:17:25.293Z,20.98
2018-07-13T00:19:54.106Z,20.94
2018-07-13T00:22:22.866Z,20.89
2018-07-13T00:24:51.708Z,20.83
2018-07-13T00:27:20.493Z,20.84
2018-07-13T00:29:49.279Z,20.76
2018-07-13T00:32:18.130Z,20.72
2018-07-13T00:34:46.894Z,20.65
2018-07-13T00:37:15.710Z,20.56
2018-07-13T00:39:44.533Z,20.57
2018-07-13T00:42:13.309Z,20.58
2018-07-13T00:44:42.173Z,20.57
2018-07-13T00:47:10.967Z,20.56
2018-07-13T00:49:39.804Z,20.52
2018-07-13T00:52:08.545Z,20.44
2018-07-13T00:54:37.378Z,20.41
2018-07-13T00:57:06.162Z,20.36
2018-07-13T00:59:35.028Z,20.38
2018-07-13T01:02:04.036Z,20.40
2018-07-13T01:04:32.825Z,20.42
2018-07-13T01:07:01.632Z,20.45
2018-07-13T01:09:30.390Z,20.49
2018-07-13T01:11:59.178Z,20.53
2018-07-13T01:14:28.003Z,20.54
2018-07-13T01:16:56.799Z,20.57
2018-07-13T01:19:25.577Z,20.54
2018-07-13T01:21:54.341Z,20.46
2018-07-13T01:24:23.134Z,20.40
2018-07-13T01:26:51.901Z,20.39
2018-07-13T01:29:20.711Z,20.37
2018-07-13T01:31:49.523Z,20.38
2018-07-13T01:34:18.330Z,20.34
2018-07-13T01:36:47.456Z,20.30
2018-07-13T01:39:16.322Z,20.26
2018-07-13T01:41:45.127Z,20.23
2018-07-13T01:44:13.995Z,20.17
2018-07-13T01:46:42.827Z,20.14
2018-07-13T01:49:11.993Z,20.13
2018-07-13T01:51:40.843Z,20.15
2018-07-13T01:54:09.615Z,20.20
2018-07-13T01:56:38.442Z,20.23
2018-07-13T01:59:07.270Z,20.22
2018-07-13T02:01:36.170Z,20.17
2018-07-13T02:04:04.951Z,20.15
2018-07-13T02:06:33.987Z,20.14
2018-07-13T02:09:02.839Z,20.10
2018-07-13T02:11:31.669Z,20.07
2018-07-13T02:14:00.452Z,20.06
2018-07-13T02:16:29.259Z,20.01
2018-07-13T02:18:58.027Z,20.01
2018-07-13T02:21:27.755Z,19.94
2018-07-13T02:23:56.490Z,19.89
2018-07-13T02:26:25.302Z,19.85
2018-07-13T02:28:54.053Z,19.80
2018-07-13T02:31:22.847Z,19.79
2018-07-13T02:33:51.657Z,19.77
2018-07-13T02:36:20.683Z,19.71
2018-07-13T02:38:49.462Z,19.74
2018-07-13T02:41:18.423Z,19.73
2018-07-13T02:43:47.229Z,19.73
2018-07-13T02:46:16.011Z,19.69
2018-07-13T02:48:44.774Z,19.65
2018-07-13T02:51:13.561Z,19.59
2018-07-13T02:53:42.355Z,19.59
2018-07-13T02:56:11.115Z,19.54
2018-07-13T02:58:39.896Z,19.56
2018-07-13T03:01:08.670Z,19.57
2018-07-13T03:03:37.868Z,19.56
2018-07-13T03:06:06.650Z,19.56
2018-07-13T03:08:35.478Z,19.55
2018-07-13T03:11:04.438Z,19.58
2018-07-13T03:13:33.262Z,19.62
2018-07-13T03:16:02.042Z,19.66
2018-07-13T03:18:30.798Z,19.69
2018-07-13T03:20:59.559Z,19.73
2018-07-13T03:23:28.328Z,19.78
2018-07-13T03:25:57.146Z,19.84
2018-07-13T03:28:25.927Z,19.88
2018-07-13T03:30:54.710Z,19.93
2018-07-13T03:33:23.525Z,20.00
2018-07-13T03:35:52.310Z,19.99
2018-07-13T03:38:21.135Z,20.01
2018-07-13T03:40:50.097Z,19.98
2018-07-13T03:43:18.882Z,20.01
2018-07-13T03:45:47.678Z,20.09
2018-07-13T03:48:16.472Z,20.16
2018-07-13T03:50:45.490Z,20.16
2018-07-13T03:53:14.237Z,20.17
2018-07-13T03:55:42.981Z,20.14
2018-07-13T03:58:11.808Z,20.18
2018-07-13T04:00:40.589Z,20.25
2018-07-13T04:03:09.446Z,20.27
2018-07-13T04:05:38.778Z,20.29
2018-07-13T04:08:07.593Z,20.37
2018-07-13T04:10:36.369Z,20.42
2018-07-13T04:13:05.363Z,20.43
2018-07-13T04:15:34.177Z,20.48
2018-07-13T04:18:02.969Z,20.55
2018-07-13T04:20:32.133Z,20.53
2018-07-13T04:23:01.026Z,20.53
2018-07-13T04:25:29.806Z,20.59
2018-07-13T04:27:58.759Z,20.62
2018-07-13T04:30:27.682Z,20.67
2018-07-13T04:32:56.443Z,20.67
2018-07-13T04:35:25.241Z,20.81
2018-07-13T04:37:54.259Z,20.93
2018-07-13T04:40:23.047Z,21.04
2018-07-13T04:42:51.806Z,21.10
2018-07-13T04:45:20.752Z,21.17
2018-07-13T04:47:49.661Z,21.31
2018-07-13T04:50:18.735Z,21.47
2018-07-13T04:52:47.845Z,21.70
2018-07-13T04:55:17.392Z,22.04
2018-07-13T04:57:46.219Z,22.67
2018-07-13T05:00:15.181Z,23.59
2018-07-13T05:02:44.041Z,24.40
2018-07-13T05:05:13.269Z,25.08
2018-07-13T05:07:42.181Z,25.53
2018-07-13T05:10:11.038Z,26.10
2018-07-13T05:12:39.806Z,26.47
2018-07-13T05:15:09.433Z,26.84
2018-07-13T05:17:38.223Z,26.91
2018-07-13T05:20:07.116Z,26.92
2018-07-13T05:22:36.639Z,27.27
2018-07-13T05:25:06.177Z,27.41
2018-07-13T05:27:35.136Z,28.11
2018-07-13T05:30:06.039Z,28.10
2018-07-13T05:32:35.336Z,28.13
2018-07-13T05:35:04.258Z,28.09
2018-07-13T05:37:33.221Z,27.59
2018-07-13T05:40:04.112Z,27.48
2018-07-13T05:42:33.012Z,27.51
2018-07-13T05:45:01.999Z,27.41
2018-07-13T05:47:31.163Z,27.61
2018-07-13T05:50:00.204Z,27.45
2018-07-13T05:52:29.134Z,27.30
2018-07-13T05:54:58.847Z,27.27
2018-07-13T05:57:28.022Z,27.30
2018-07-13T05:59:56.979Z,27.23
2018-07-13T06:02:25.969Z,26.75
2018-07-13T06:04:55.160Z,26.40
2018-07-13T06:07:24.086Z,25.96
2018-07-13T06:09:52.949Z,25.88
2018-07-13T06:12:21.825Z,25.77
2018-07-13T06:14:50.588Z,25.75
2018-07-13T06:17:19.353Z,25.75
2018-07-13T06:19:48.217Z,25.66
2018-07-13T06:22:17.042Z,25.61
2018-07-13T06:24:45.829Z,25.48
2018-07-13T06:27:14.647Z,25.33
2018-07-13T06:29:43.706Z,25.23
2018-07-13T06:32:12.548Z,25.17
2018-07-13T06:34:41.723Z,25.15
2018-07-13T06:37:11.001Z,24.95
2018-07-13T06:39:39.878Z,24.82
2018-07-13T06:42:08.706Z,24.83
2018-07-13T06:44:37.522Z,24.71
2018-07-13T06:47:06.505Z,24.62
2018-07-13T06:49:35.430Z,24.58
2018-07-13T06:52:04.502Z,24.74
2018-07-13T06:54:33.394Z,24.69
2018-07-13T06:57:02.269Z,24.66
2018-07-13T06:59:31.082Z,24.65
2018-07-13T07:01:59.957Z,24.64
2018-07-13T07:04:31.498Z,24.60
2018-07-13T07:07:32.533Z,24.72
2018-07-13T07:10:01.623Z,24.63
2018-07-13T07:12:52.043Z,24.49
2018-07-13T07:15:21.377Z,24.50
2018-07-13T07:17:50.294Z,24.58
2018-07-13T07:20:19.329Z,24.70
2018-07-13T07:22:48.676Z,24.72
2018-07-13T07:25:17.639Z,24.69
2018-07-13T07:27:46.794Z,24.61
2018-07-13T07:30:15.662Z,24.74
2018-07-13T07:32:45.353Z,24.91
2018-07-13T07:35:14.116Z,25.03
2018-07-13T07:37:43.018Z,25.22
2018-07-13T07:40:11.886Z,25.30
2018-07-13T07:42:40.829Z,25.34
2018-07-13T07:45:09.723Z,25.42
2018-07-13T07:47:38.551Z,25.38
2018-07-13T07:50:07.656Z,25.44
2018-07-13T07:52:36.604Z,25.53
2018-07-13T07:55:05.495Z,25.58
2018-07-13T07:57:34.335Z,25.67
2018-07-13T08:00:04.612Z,25.72
2018-07-13T08:02:33.871Z,25.72
2018-07-13T08:05:02.722Z,25.68
2018-07-13T08:07:31.639Z,25.59
2018-07-13T08:10:00.575Z,25.57
2018-07-13T08:12:29.360Z,25.76
2018-07-13T08:14:58.431Z,25.95
2018-07-13T08:17:27.417Z,26.11
2018-07-13T08:19:56.580Z,26.17
2018-07-13T08:22:38.199Z,26.23
2018-07-13T08:25:09.464Z,26.08
2018-07-13T08:27:44.418Z,26.20
2018-07-13T08:30:22.077Z,26.30
2018-07-13T08:32:50.900Z,26.40
2018-07-13T08:35:20.125Z,26.49
2018-07-13T08:37:48.982Z,26.56
2018-07-13T08:40:17.979Z,26.55
2018-07-13T08:42:46.857Z,26.60
2018-07-13T08:45:16.058Z,26.62
2018-07-13T08:47:44.964Z,26.48
2018-07-13T08:50:13.961Z,26.47
2018-07-13T08:52:42.925Z,26.46
2018-07-13T08:55:14.457Z,26.42
2018-07-13T08:57:45.876Z,26.41
2018-07-13T09:00:14.953Z,26.56
2018-07-13T09:02:44.164Z,26.66
2018-07-13T09:05:13.021Z,26.88
2018-07-13T09:07:41.888Z,27.02
2018-07-13T09:10:11.633Z,27.17
2018-07-13T09:12:40.723Z,27.34
2018-07-13T09:15:10.899Z,27.44
2018-07-13T09:17:40.247Z,27.36
2018-07-13T09:20:11.398Z,27.00
2018-07-13T09:22:40.269Z,26.97
2018-07-13T09:25:10.108Z,26.87
2018-07-13T09:27:39.261Z,26.76
2018-07-13T09:30:09.088Z,26.80
2018-07-13T09:32:37.949Z,26.98
2018-07-13T09:35:06.799Z,27.22
2018-07-13T09:37:36.090Z,27.29
2018-07-13T09:40:05.127Z,27.44
2018-07-13T09:42:34.499Z,27.47
2018-07-13T09:45:03.391Z,27.51
2018-07-13T09:47:32.919Z,27.51
2018-07-13T09:50:01.774Z,27.56
2018-07-13T09:52:30.622Z,27.50
2018-07-13T09:54:59.709Z,27.51
2018-07-13T09:57:28.530Z,27.55
2018-07-13T09:59:57.416Z,27.61
2018-07-13T10:02:26.387Z,27.66
2018-07-13T10:04:58.865Z,27.77
2018-07-13T10:07:28.953Z,27.91
2018-07-13T10:09:59.794Z,27.94
2018-07-13T10:12:28.714Z,27.69
2018-07-13T10:14:57.646Z,27.78
2018-07-13T10:17:27.288Z,27.74
2018-07-13T10:19:56.110Z,27.77
2018-07-13T10:22:29.018Z,27.79
2018-07-13T10:25:01.396Z,27.76
2018-07-13T10:27:33.331Z,27.85
2018-07-13T10:30:04.206Z,27.87
2018-07-13T10:32:33.700Z,27.88
2018-07-13T10:35:03.643Z,27.96
2018-07-13T10:37:32.681Z,28.08
2018-07-13T10:40:01.608Z,28.11
2018-07-13T10:42:30.572Z,27.98
2018-07-13T10:44:59.417Z,27.97
2018-07-13T10:47:28.370Z,28.06
2018-07-13T10:49:57.183Z,28.21
2018-07-13T10:52:26.384Z,28.07
2018-07-13T10:54:55.223Z,27.98
2018-07-13T10:57:24.060Z,27.88
2018-07-13T10:59:52.921Z,27.81
2018-07-13T11:02:21.901Z,27.94
2018-07-13T11:04:50.707Z,28.12
2018-07-13T11:07:19.619Z,28.17
2018-07-13T11:09:48.428Z,28.24
2018-07-13T11:12:17.251Z,28.49
2018-07-13T11:14:46.711Z,28.80
2018-07-13T11:17:15.566Z,28.82
2018-07-13T11:19:44.400Z,28.84
2018-07-13T11:22:13.314Z,28.58
2018-07-13T11:24:42.200Z,28.47
2018-07-13T11:27:11.081Z,28.52
2018-07-13T11:29:39.989Z,28.51
2018-07-13T11:32:08.999Z,28.68
2018-07-13T11:34:37.915Z,28.75
2018-07-13T11:37:07.458Z,28.80
2018-07-13T11:39:36.414Z,28.03
2018-07-13T11:42:05.229Z,27.54
2018-07-13T11:44:34.073Z,27.02
2018-07-13T11:47:02.907Z,26.47
2018-07-13T11:49:31.736Z,26.00
2018-07-13T11:52:00.591Z,25.76
2018-07-13T11:54:29.487Z,25.70
2018-07-13T11:56:58.330Z,25.42
2018-07-13T11:59:27.151Z,25.72
2018-07-13T12:01:56.083Z,25.79
2018-07-13T12:04:25.001Z,25.92
2018-07-13T12:06:53.783Z,25.90
2018-07-13T12:09:22.590Z,25.61
2018-07-13T12:11:51.435Z,25.78
2018-07-13T12:14:20.182Z,25.92
2018-07-13T12:16:49.183Z,25.91
2018-07-13T12:19:18.000Z,25.61
2018-07-13T12:21:46.835Z,25.37
2018-07-13T12:24:15.924Z,25.43
2018-07-13T12:26:44.721Z,25.45
2018-07-13T12:29:15.401Z,25.50
2018-07-13T12:31:44.238Z,25.54
2018-07-13T12:34:13.045Z,25.42
2018-07-13T12:36:41.822Z,25.55
2018-07-13T12:39:10.667Z,25.74
2018-07-13T12:41:39.780Z,26.17
2018-07-13T12:44:08.682Z,26.48
2018-07-13T12:46:37.831Z,26.46
2018-07-13T12:49:06.774Z,26.23
2018-07-13T12:51:35.655Z,25.84
2018-07-13T12:54:04.466Z,25.74
2018-07-13T12:56:33.531Z,26.05
2018-07-13T12:59:02.443Z,26.18
2018-07-13T13:01:31.281Z,26.33
2018-07-13T13:04:00.144Z,26.33
2018-07-13T13:06:28.988Z,26.42
2018-07-13T13:08:57.826Z,26.44
2018-07-13T13:11:26.651Z,26.42
2018-07-13T13:13:55.458Z,26.33
2018-07-13T13:16:24.327Z,26.36
2018-07-13T13:18:53.106Z,26.51
2018-07-13T13:21:21.894Z,26.74
2018-07-13T13:23:50.796Z,26.89
2018-07-13T13:26:19.687Z,26.98
2018-07-13T13:28:48.445Z,27.23
2018-07-13T13:31:17.289Z,27.52
2018-07-13T13:33:46.170Z,27.67
2018-07-13T13:36:15.008Z,28.06
2018-07-13T13:38:43.827Z,27.94
2018-07-13T13:41:12.725Z,27.86
2018-07-13T13:43:41.563Z,27.60
2018-07-13T13:46:10.468Z,27.24
2018-07-13T13:48:39.322Z,27.00
2018-07-13T13:51:08.139Z,27.02
2018-07-13T13:53:37.080Z,27.17
2018-07-13T13:56:06.071Z,27.27
2018-07-13T13:58:34.863Z,27.49
2018-07-13T14:01:03.678Z,27.81
2018-07-13T14:03:32.994Z,27.87
2018-07-13T14:06:01.802Z,27.62
2018-07-13T14:08:30.623Z,26.72
2018-07-13T14:10:59.547Z,26.26
2018-07-13T14:13:28.361Z,26.09
2018-07-13T14:15:57.406Z,25.65
2018-07-13T14:18:27.147Z,25.28
2018-07-13T14:20:55.963Z,25.38
2018-07-13T14:23:24.760Z,25.45
2018-07-13T14:25:53.590Z,25.69
2018-07-13T14:28:22.482Z,25.98
2018-07-13T14:30:51.684Z,26.06
2018-07-13T14:33:20.549Z,26.00
2018-07-13T14:35:49.356Z,26.16
2018-07-13T14:38:18.132Z,26.19
2018-07-13T14:40:48.075Z,26.13
2018-07-13T14:43:16.973Z,26.23
2018-07-13T14:45:57.885Z,26.51
2018-07-13T14:48:26.860Z,26.73
2018-07-13T14:50:55.890Z,26.74
2018-07-13T14:53:28.802Z,26.80
2018-07-13T14:55:57.745Z,26.93
2018-07-13T14:58:27.072Z,27.05
2018-07-13T15:00:55.967Z,27.13
2018-07-13T15:03:24.983Z,27.25
2018-07-13T15:05:54.094Z,27.38
2018-07-13T15:08:23.276Z,27.38
2018-07-13T15:10:52.241Z,27.36
2018-07-13T15:13:21.244Z,27.39
2018-07-13T15:15:50.227Z,27.54
2018-07-13T15:18:19.198Z,27.70
2018-07-13T15:20:48.153Z,27.76
2018-07-13T15:23:17.041Z,27.90
2018-07-13T15:25:45.976Z,28.04
2018-07-13T15:28:15.020Z,28.18
2018-07-13T15:30:43.834Z,28.31
2018-07-13T15:33:12.699Z,28.19
2018-07-13T15:35:41.601Z,28.15
2018-07-13T15:38:10.409Z,28.11
2018-07-13T15:40:39.298Z,28.00
2018-07-13T15:43:08.058Z,27.95
2018-07-13T15:45:36.890Z,27.95
2018-07-13T15:48:05.654Z,27.87
2018-07-13T15:50:34.448Z,27.92
2018-07-13T15:53:03.763Z,27.79
2018-07-13T15:55:37.732Z,27.73
2018-07-13T15:58:06.551Z,27.61
2018-07-13T16:00:35.838Z,27.45
2018-07-13T16:03:05.036Z,27.37
2018-07-13T16:05:34.311Z,27.30
2018-07-13T16:08:03.275Z,27.27
2018-07-13T16:10:32.403Z,27.26
2018-07-13T16:13:01.221Z,27.14
2018-07-13T16:15:30.108Z,27.04
2018-07-13T16:17:58.900Z,27.00
2018-07-13T16:20:27.766Z,27.01
2018-07-13T16:22:56.613Z,27.08
2018-07-13T16:25:25.574Z,27.13
2018-07-13T16:27:54.489Z,27.10
2018-07-13T16:30:23.243Z,27.19
2018-07-13T16:32:52.423Z,27.25
2018-07-13T16:35:21.249Z,27.33
2018-07-13T16:37:50.906Z,27.42
2018-07-13T16:40:19.664Z,27.45
2018-07-13T16:42:48.457Z,27.46
2018-07-13T16:45:17.292Z,27.40
2018-07-13T16:47:46.101Z,27.42
2018-07-13T16:50:14.966Z,27.44
2018-07-13T16:52:43.733Z,27.35
2018-07-13T16:55:12.509Z,27.35
2018-07-13T16:57:41.310Z,27.29
2018-07-13T17:00:10.146Z,27.25
2018-07-13T17:02:38.914Z,27.00
2018-07-13T17:05:07.682Z,26.74
2018-07-13T17:07:36.463Z,26.33
2018-07-13T17:10:05.283Z,26.12
2018-07-13T17:12:34.092Z,26.08
2018-07-13T17:15:02.908Z,25.83
2018-07-13T17:17:31.748Z,25.45
2018-07-13T17:20:00.542Z,25.27
2018-07-13T17:22:29.402Z,25.24
2018-07-13T17:24:58.158Z,25.28
2018-07-13T17:27:27.010Z,25.24
2018-07-13T17:29:55.803Z,25.22
2018-07-13T17:32:25.022Z,25.03
2018-07-13T17:34:53.799Z,24.98
2018-07-13T17:37:22.562Z,24.95
2018-07-13T17:39:51.907Z,24.79
2018-07-13T17:42:20.700Z,24.83
2018-07-13T17:44:49.575Z,24.79
2018-07-13T17:47:18.367Z,24.78
2018-07-13T17:49:48.106Z,24.71
2018-07-13T17:52:16.959Z,24.68
2018-07-13T17:54:45.721Z,24.68
2018-07-13T17:57:20.798Z,24.70
2018-07-13T17:59:49.685Z,24.69
2018-07-13T18:02:18.988Z,24.71
2018-07-13T18:04:47.772Z,24.75
2018-07-13T18:07:16.607Z,24.76
2018-07-13T18:09:45.410Z,24.77
2018-07-13T18:12:14.296Z,24.69
2018-07-13T18:14:43.112Z,24.61
2018-07-13T18:17:11.919Z,24.62
2018-07-13T18:19:40.717Z,24.59
2018-07-13T18:22:09.861Z,24.51
2018-07-13T18:24:38.663Z,24.49
2018-07-13T18:27:07.642Z,24.47
2018-07-13T18:29:36.440Z,24.39
2018-07-13T18:32:05.839Z,24.37
2018-07-13T18:34:38.590Z,24.37
2018-07-13T18:37:09.189Z,24.34
2018-07-13T18:39:39.438Z,24.29
2018-07-13T18:42:11.255Z,24.25
2018-07-13T18:44:40.065Z,24.20
2018-07-13T18:47:10.311Z,24.15
2018-07-13T18:49:40.723Z,24.11
2018-07-13T18:52:10.336Z,24.07
2018-07-13T18:54:40.788Z,24.05
2018-07-13T18:57:10.560Z,24.11
2018-07-13T18:59:40.737Z,24.12
2018-07-13T19:02:10.295Z,24.07
2018-07-13T19:04:40.078Z,24.06
2018-07-13T19:07:09.211Z,24.05
2018-07-13T19:09:38.074Z,24.05
2018-07-13T19:12:09.038Z,23.93
2018-07-13T19:14:38.042Z,23.80
2018-07-13T19:17:07.620Z,23.73
2018-07-13T19:19:38.181Z,23.69
2018-07-13T19:22:10.315Z,23.64
2018-07-13T19:24:39.174Z,23.59
2018-07-13T19:27:08.044Z,23.60
2018-07-13T19:29:36.813Z,23.59
2018-07-13T19:32:05.704Z,23.59
2018-07-13T19:34:34.585Z,23.60
2018-07-13T19:37:03.451Z,23.57
2018-07-13T19:39:32.229Z,23.52
2018-07-13T19:42:01.378Z,23.53
2018-07-13T19:44:30.190Z,23.50
2018-07-13T19:46:58.980Z,23.44
2018-07-13T19:49:28.075Z,23.42
2018-07-13T19:51:56.938Z,23.36
2018-07-13T19:54:25.748Z,23.28
2018-07-13T19:56:54.542Z,23.16
2018-07-13T19:59:23.313Z,23.09
2018-07-13T20:01:52.607Z,23.08
2018-07-13T20:04:21.476Z,23.04
2018-07-13T20:06:50.271Z,22.90
2018-07-13T20:09:19.509Z,22.78
2018-07-13T20:11:48.720Z,22.73
2018-07-13T20:14:17.488Z,22.69
2018-07-13T20:16:46.308Z,22.67
2018-07-13T20:19:15.293Z,22.74
2018-07-13T20:21:44.120Z,22.70
2018-07-13T20:24:13.467Z,22.67
2018-07-13T20:26:42.293Z,22.58
2018-07-13T20:29:11.596Z,22.59
2018-07-13T20:31:40.638Z,22.57
2018-07-13T20:34:09.438Z,22.55
2018-07-13T20:36:38.225Z,22.59
2018-07-13T20:39:07.686Z,22.61
2018-07-13T20:41:36.775Z,22.54
2018-07-13T20:44:05.597Z,22.53
2018-07-13T20:46:38.171Z,22.56
2018-07-13T20:49:07.067Z,22.48
2018-07-13T20:51:35.870Z,22.43
2018-07-13T20:54:04.707Z,22.43
2018-07-13T20:56:33.634Z,22.48
2018-07-13T20:59:02.557Z,22.51
2018-07-13T21:01:31.506Z,22.51
2018-07-13T21:04:00.348Z,22.36
2018-07-13T21:06:29.133Z,22.32
2018-07-13T21:08:57.964Z,22.37
2018-07-13T21:11:26.785Z,22.42
2018-07-13T21:13:55.598Z,22.47
2018-07-13T21:16:24.418Z,22.48
2018-07-13T21:18:53.739Z,22.46
2018-07-13T21:21:22.573Z,22.43
2018-07-13T21:23:51.537Z,22.36
2018-07-13T21:26:20.330Z,22.29
2018-07-13T21:28:49.247Z,22.23
2018-07-13T21:31:18.039Z,22.20
2018-07-13T21:33:46.846Z,22.15
2018-07-13T21:36:15.646Z,22.09
2018-07-13T21:38:44.459Z,22.04
2018-07-13T21:41:13.262Z,21.99
2018-07-13T21:43:42.097Z,21.92
2018-07-13T21:46:10.928Z,21.81
2018-07-13T21:48:39.729Z,21.69
2018-07-13T21:51:08.514Z,21.66
2018-07-13T21:53:37.961Z,21.65
2018-07-13T21:56:06.763Z,21.64
2018-07-13T21:58:35.562Z,21.62
2018-07-13T22:01:04.463Z,21.64
2018-07-13T22:03:33.263Z,21.57
2018-07-13T22:06:02.192Z,21.59
2018-07-13T22:08:30.964Z,21.51
2018-07-13T22:10:59.774Z,21.46
2018-07-13T22:13:28.596Z,21.44
2018-07-13T22:15:57.397Z,21.37
2018-07-13T22:18:26.720Z,21.30
2018-07-13T22:20:55.736Z,21.29
2018-07-13T22:23:24.790Z,21.23
2018-07-13T22:25:54.164Z,21.24
2018-07-13T22:28:22.948Z,21.22
2018-07-13T22:30:51.895Z,21.22
2018-07-13T22:33:20.702Z,21.18
2018-07-13T22:35:49.541Z,21.17
2018-07-13T22:38:18.355Z,21.15
2018-07-13T22:40:47.190Z,21.17
2018-07-13T22:43:15.995Z,21.15
2018-07-13T22:45:44.837Z,21.13
2018-07-13T22:48:13.670Z,21.14
2018-07-13T22:50:42.502Z,21.14
2018-07-13T22:53:11.338Z,21.18
2018-07-13T22:55:40.130Z,21.23
2018-07-13T22:58:09.049Z,21.30
2018-07-13T23:00:37.879Z,21.31
2018-07-13T23:03:07.050Z,21.32
2018-07-13T23:05:35.854Z,21.30
2018-07-13T23:08:04.637Z,21.24
2018-07-13T23:10:33.846Z,21.26
2018-07-13T23:13:02.699Z,21.23
2018-07-13T23:15:31.514Z,21.21
2018-07-13T23:18:00.356Z,21.19
2018-07-13T23:20:29.234Z,21.23
2018-07-13T23:22:58.030Z,21.26
2018-07-13T23:25:26.846Z,21.22
2018-07-13T23:27:55.599Z,21.22
2018-07-13T23:30:24.403Z,21.24
2018-07-13T23:32:53.182Z,21.25
2018-07-13T23:35:21.958Z,21.22
2018-07-13T23:37:50.789Z,21.21
2018-07-13T23:40:19.578Z,21.27
2018-07-13T23:42:48.332Z,21.29
2018-07-13T23:45:17.119Z,21.29
2018-07-13T23:47:45.905Z,21.32
2018-07-13T23:50:14.646Z,21.36
2018-07-13T23:52:43.823Z,21.37
2018-07-13T23:55:12.609Z,21.29
2018-07-13T23:57:41.447Z,21.24
